Time;durP1;ratioP1;P1;durP2;ratioP2;P2;SDS_P1;SDS_P2;PMS_P1;PMS_P2;Temp;Humidity;BMP_temperature;BMP_pressure;BME280_temperature;BME280_humidity;BME280_pressure;Samples;Min_cycle;Max_cycle;Signal;HPM_P1;HPM_P2
2021/03/09 00:01:19;;;;;;;38.08;19.25;;;;;;;;;;5138799;27;20047;-81
2021/03/09 00:03:45;;;;;;;39.90;19.10;;;;;;;;;;5138747;27;20067;-80
2021/03/09 00:06:11;;;;;;;50.20;22.67;;;;;;;;;;5136949;27;20035;-80
2021/03/09 00:08:37;;;;;;;41.55;18.33;;;;;;;;;;5138025;27;20023;-79
2021/03/09 00:11:03;;;;;;;45.45;19.73;;;;;;;;;;5138581;27;20039;-82
2021/03/09 00:13:29;;;;;;;40.90;20.25;;;;;;;;;;5138427;27;20087;-80
2021/03/09 00:15:55;;;;;;;42.03;21.38;;;;;;;;;;5138280;27;20047;-80
2021/03/09 00:18:22;;;;;;;48.40;22.60;;;;;;;;;;5138364;27;20079;-80
2021/03/09 00:20:48;;;;;;;48.10;23.02;;;;;;;;;;5138611;27;20440;-80
2021/03/09 00:23:14;;;;;;;45.95;23.73;;;;;;;;;;5138313;27;20110;-78
2021/03/09 00:25:40;;;;;;;50.08;24.70;;;;;;;;;;5138483;27;20336;-79
2021/03/09 00:28:06;;;;;;;47.15;24.45;;;;;;;;;;5138385;27;20019;-80
2021/03/09 00:30:32;;;;;;;51.88;26.45;;;;;;;;;;5137005;27;20065;-81
2021/03/09 00:32:58;;;;;;;45.25;25.08;;;;;;;;;;5138336;27;20023;-80
2021/03/09 00:35:24;;;;;;;41.65;24.83;;;;;;;;;;5137952;27;20027;-80
2021/03/09 00:37:50;;;;;;;43.70;24.27;;;;;;;;;;5137837;27;20325;-80
2021/03/09 00:40:16;;;;;;;43.83;25.23;;;;;;;;;;5138236;27;20072;-79
2021/03/09 00:42:42;;;;;;;44.20;23.77;;;;;;;;;;5138139;27;20416;-82
2021/03/09 00:45:09;;;;;;;48.13;25.27;;;;;;;;;;5137217;27;20359;-81
2021/03/09 00:47:35;;;;;;;42.78;24.33;;;;;;;;;;5138075;27;20397;-80
2021/03/09 00:50:01;;;;;;;37.75;21.52;;;;;;;;;;5138233;27;20488;-80
2021/03/09 00:52:27;;;;;;;38.22;22.08;;;;;;;;;;5137879;27;20037;-80
2021/03/09 00:54:53;;;;;;;38.70;22.55;;;;;;;;;;5138276;27;20026;-80
2021/03/09 00:57:19;;;;;;;35.20;20.73;;;;;;;;;;5138029;28;20027;-79
2021/03/09 00:59:45;;;;;;;38.15;22.52;;;;;;;;;;5138021;28;20424;-79
2021/03/09 01:02:11;;;;;;;42.90;22.00;;;;;;;;;;5137610;28;20066;-78
2021/03/09 01:04:37;;;;;;;37.22;21.27;;;;;;;;;;5137810;28;20027;-80
2021/03/09 01:07:03;;;;;;;39.05;20.83;;;;;;;;;;5138021;28;20031;-80
2021/03/09 01:09:29;;;;;;;31.77;19.08;;;;;;;;;;5138129;27;20034;-80
2021/03/09 01:11:55;;;;;;;34.95;19.48;;;;;;;;;;5136997;28;20031;-80
2021/03/09 01:14:21;;;;;;;37.08;19.60;;;;;;;;;;5137937;28;20022;-81
2021/03/09 01:16:47;;;;;;;35.08;18.90;;;;;;;;;;5136947;28;20031;-81
2021/03/09 01:19:13;;;;;;;34.58;18.15;;;;;;;;;;5141391;27;20019;-81
2021/03/09 01:21:39;;;;;;;35.65;19.30;;;;;;;;;;5141266;27;20409;-81
2021/03/09 01:24:06;;;;;;;33.20;18.73;;;;;;;;;;5142035;27;20398;-81
2021/03/09 01:26:32;;;;;;;31.83;17.60;;;;;;;;;;5142077;27;20024;-82
2021/03/09 01:28:58;;;;;;;33.60;18.90;;;;;;;;;;5142049;27;20023;-82
2021/03/09 01:31:24;;;;;;;32.50;18.73;;;;;;;;;;5141873;27;20317;-81
2021/03/09 01:33:50;;;;;;;30.33;18.13;;;;;;;;;;5142011;27;20023;-83
2021/03/09 01:36:16;;;;;;;31.08;17.65;;;;;;;;;;5142031;27;20051;-82
2021/03/09 01:38:42;;;;;;;30.05;17.13;;;;;;;;;;5141769;27;20035;-81
2021/03/09 01:41:08;;;;;;;31.38;16.98;;;;;;;;;;5142379;27;20321;-82
2021/03/09 01:43:35;;;;;;;29.75;16.92;;;;;;;;;;5141726;27;20031;-82
2021/03/09 01:46:01;;;;;;;30.27;16.98;;;;;;;;;;5140394;27;20031;-81
2021/03/09 01:48:30;;;;;;;27.90;16.05;;;;;;;;;;5140534;27;20337;-80
2021/03/09 01:50:57;;;;;;;29.25;15.95;;;;;;;;;;5141415;27;20102;-81
2021/03/09 01:53:23;;;;;;;26.48;15.65;;;;;;;;;;5141216;27;20027;-81
2021/03/09 01:55:49;;;;;;;27.50;14.82;;;;;;;;;;5141757;27;20027;-81
2021/03/09 01:58:17;;;;;;;34.85;18.42;;;;;;;;;;5141536;27;20023;-83
2021/03/09 02:00:43;;;;;;;31.20;18.10;;;;;;;;;;5141508;27;20064;-81
2021/03/09 02:03:09;;;;;;;38.53;18.55;;;;;;;;;;5141367;27;20033;-81
2021/03/09 02:05:36;;;;;;;47.60;19.38;;;;;;;;;;5140026;27;20035;-79
2021/03/09 02:08:02;;;;;;;33.80;18.02;;;;;;;;;;5141624;27;20019;-80
2021/03/09 02:10:28;;;;;;;34.10;18.17;;;;;;;;;;5141051;27;20023;-82
2021/03/09 02:13:03;;;;;;;34.53;18.08;;;;;;;;;;5141249;27;20310;-82
2021/03/09 02:15:38;;;;;;;31.58;16.92;;;;;;;;;;5141368;27;20031;-82
2021/03/09 02:18:04;;;;;;;25.10;14.75;;;;;;;;;;5141145;27;20328;-82
2021/03/09 02:20:39;;;;;;;25.23;14.45;;;;;;;;;;5141122;27;20023;-82
2021/03/09 02:23:20;;;;;;;24.70;13.73;;;;;;;;;;5141066;27;20028;-81
2021/03/09 02:26:05;;;;;;;27.67;14.90;;;;;;;;;;5141124;27;20080;-82
2021/03/09 02:28:44;;;;;;;23.75;13.38;;;;;;;;;;5140835;27;20114;-80
2021/03/09 02:31:10;;;;;;;27.15;13.65;;;;;;;;;;5140282;27;20062;-83
2021/03/09 02:33:39;;;;;;;28.58;14.23;;;;;;;;;;5141189;27;20023;-83
2021/03/09 02:36:05;;;;;;;25.42;14.30;;;;;;;;;;5141220;27;20047;-84
2021/03/09 02:38:37;;;;;;;23.73;13.60;;;;;;;;;;5141128;27;20097;-84
2021/03/09 02:41:03;;;;;;;23.35;13.38;;;;;;;;;;5140823;27;20023;-84
2021/03/09 02:43:30;;;;;;;24.70;14.13;;;;;;;;;;5140634;27;20431;-83
2021/03/09 02:45:57;;;;;;;23.23;13.05;;;;;;;;;;5140398;27;20019;-82
2021/03/09 02:48:24;;;;;;;25.95;13.63;;;;;;;;;;5139618;27;20020;-82
2021/03/09 02:50:51;;;;;;;31.17;12.60;;;;;;;;;;5140209;27;20122;-82
2021/03/09 02:53:17;;;;;;;27.70;13.57;;;;;;;;;;5139288;27;20073;-83
2021/03/09 02:55:43;;;;;;;26.63;14.40;;;;;;;;;;5140512;27;20091;-83
2021/03/09 02:58:13;;;;;;;27.50;14.70;;;;;;;;;;5140506;27;20367;-82
2021/03/09 03:00:40;;;;;;;29.20;13.68;;;;;;;;;;5140070;27;20030;-82
2021/03/09 03:03:08;;;;;;;24.25;13.85;;;;;;;;;;5140459;27;20048;-83
2021/03/09 03:05:35;;;;;;;33.80;15.80;;;;;;;;;;5140494;27;20042;-83
2021/03/09 03:08:04;;;;;;;32.47;16.63;;;;;;;;;;5140555;27;20041;-82
2021/03/09 03:10:30;;;;;;;22.38;13.30;;;;;;;;;;5139971;27;20398;-83
2021/03/09 03:12:57;;;;;;;25.05;13.23;;;;;;;;;;5140116;27;20429;-83
2021/03/09 03:15:23;;;;;;;25.52;14.23;;;;;;;;;;5140096;27;20030;-83
2021/03/09 03:17:50;;;;;;;46.90;21.27;;;;;;;;;;5140149;27;20428;-83
2021/03/09 03:20:18;;;;;;;69.13;31.05;;;;;;;;;;5140082;27;20024;-84
2021/03/09 03:22:45;;;;;;;59.90;26.33;;;;;;;;;;5140289;27;20099;-84
2021/03/09 03:25:12;;;;;;;36.17;16.55;;;;;;;;;;5139942;27;20027;-84
2021/03/09 03:27:40;;;;;;;26.58;14.35;;;;;;;;;;5139029;27;20031;-85
2021/03/09 03:30:07;;;;;;;25.30;13.60;;;;;;;;;;5139474;27;20027;-82
2021/03/09 03:32:34;;;;;;;24.63;13.52;;;;;;;;;;5138538;27;20059;-80
2021/03/09 03:35:00;;;;;;;31.92;15.10;;;;;;;;;;5139627;27;20072;-84
2021/03/09 03:37:26;;;;;;;24.42;13.05;;;;;;;;;;5139734;27;20031;-83
2021/03/09 03:39:52;;;;;;;23.17;13.18;;;;;;;;;;5139757;27;20027;-82
2021/03/09 03:42:18;;;;;;;47.35;17.48;;;;;;;;;;5138725;27;20051;-83
2021/03/09 03:44:45;;;;;;;78.32;33.78;;;;;;;;;;5139405;27;20023;-84
2021/03/09 03:47:11;;;;;;;51.22;24.88;;;;;;;;;;5139447;27;20023;-83
2021/03/09 03:49:37;;;;;;;63.50;29.77;;;;;;;;;;5139649;27;20321;-84
2021/03/09 03:52:09;;;;;;;52.10;23.42;;;;;;;;;;5139287;27;20409;-83
2021/03/09 03:54:49;;;;;;;32.15;17.02;;;;;;;;;;5139507;27;20051;-84
2021/03/09 03:57:19;;;;;;;49.85;22.85;;;;;;;;;;5139205;27;20027;-84
2021/03/09 03:59:47;;;;;;;53.53;27.15;;;;;;;;;;5138454;27;20030;-84
2021/03/09 04:02:15;;;;;;;37.90;17.85;;;;;;;;;;5139392;27;20160;-84
2021/03/09 04:04:43;;;;;;;28.50;14.27;;;;;;;;;;5139358;27;20095;-85
2021/03/09 04:07:09;;;;;;;29.25;14.25;;;;;;;;;;5139500;27;20027;-84
2021/03/09 04:09:36;;;;;;;46.22;23.75;;;;;;;;;;5139140;27;20056;-83
2021/03/09 04:12:02;;;;;;;52.63;25.33;;;;;;;;;;5139280;27;20028;-85
2021/03/09 04:14:32;;;;;;;33.15;18.55;;;;;;;;;;5139335;27;20025;-84
2021/03/09 04:16:59;;;;;;;22.25;13.93;;;;;;;;;;5139299;27;20011;-84
2021/03/09 04:19:25;;;;;;;24.08;13.90;;;;;;;;;;5138923;27;20019;-84
2021/03/09 04:21:52;;;;;;;24.17;12.55;;;;;;;;;;5138990;27;20015;-84
2021/03/09 04:24:19;;;;;;;21.98;11.63;;;;;;;;;;5138967;27;20421;-84
2021/03/09 04:26:46;;;;;;;20.45;11.88;;;;;;;;;;5138705;27;20076;-83
2021/03/09 04:29:13;;;;;;;22.98;11.27;;;;;;;;;;5137686;27;20031;-82
2021/03/09 04:31:40;;;;;;;24.17;12.05;;;;;;;;;;5138689;27;20063;-82
2021/03/09 04:34:07;;;;;;;25.48;11.05;;;;;;;;;;5138705;27;20019;-82
2021/03/09 04:36:33;;;;;;;16.92;10.15;;;;;;;;;;5137627;27;20325;-85
2021/03/09 04:39:01;;;;;;;20.73;11.05;;;;;;;;;;5138819;27;20015;-86
2021/03/09 04:41:27;;;;;;;21.25;10.20;;;;;;;;;;5139072;27;20031;-86
2021/03/09 04:43:53;;;;;;;18.85;10.52;;;;;;;;;;5139045;27;20049;-85
2021/03/09 04:46:21;;;;;;;19.73;10.15;;;;;;;;;;5138726;27;20037;-85
2021/03/09 04:48:47;;;;;;;20.70;10.32;;;;;;;;;;5137679;27;20111;-85
2021/03/09 04:51:15;;;;;;;20.17;10.30;;;;;;;;;;5138235;27;20019;-84
2021/03/09 04:53:41;;;;;;;20.55;9.98;;;;;;;;;;5138548;27;20019;-84
2021/03/09 04:56:08;;;;;;;19.98;11.32;;;;;;;;;;5138905;27;20106;-85
2021/03/09 04:58:34;;;;;;;22.75;11.18;;;;;;;;;;5138701;28;20019;-84
2021/03/09 05:01:00;;;;;;;18.58;11.05;;;;;;;;;;5138045;28;20050;-84
2021/03/09 05:03:26;;;;;;;21.40;11.35;;;;;;;;;;5138585;28;20046;-84
2021/03/09 05:05:53;;;;;;;24.70;12.10;;;;;;;;;;5138470;28;20060;-84
2021/03/09 05:08:19;;;;;;;26.58;11.82;;;;;;;;;;5138314;28;20019;-84
2021/03/09 05:10:45;;;;;;;32.97;13.43;;;;;;;;;;5138585;28;20408;-84
2021/03/09 05:13:12;;;;;;;23.05;10.90;;;;;;;;;;5138363;28;20020;-84
2021/03/09 05:15:38;;;;;;;21.52;10.95;;;;;;;;;;5138319;28;20028;-84
2021/03/09 05:18:04;;;;;;;27.77;12.73;;;;;;;;;;5138572;28;20023;-84
2021/03/09 05:20:30;;;;;;;24.85;13.18;;;;;;;;;;5138325;28;20084;-86
2021/03/09 05:22:56;;;;;;;23.25;13.40;;;;;;;;;;5138576;28;20031;-85
2021/03/09 05:25:22;;;;;;;25.20;12.60;;;;;;;;;;5137816;28;20027;-85
2021/03/09 05:27:48;;;;;;;38.60;20.85;;;;;;;;;;5137286;28;20031;-86
2021/03/09 05:30:16;;;;;;;40.58;19.35;;;;;;;;;;5137294;28;20030;-87
2021/03/09 05:32:42;;;;;;;35.53;18.73;;;;;;;;;;5138328;28;20039;-86
2021/03/09 05:35:09;;;;;;;37.83;21.23;;;;;;;;;;5138378;28;20026;-85
2021/03/09 05:37:35;;;;;;;31.25;17.50;;;;;;;;;;5138260;28;20023;-85
2021/03/09 05:40:01;;;;;;;26.05;14.13;;;;;;;;;;5138394;28;20035;-85
2021/03/09 05:42:27;;;;;;;24.98;11.60;;;;;;;;;;5137256;28;20027;-85
2021/03/09 05:44:53;;;;;;;21.48;10.52;;;;;;;;;;5138293;28;20019;-85
2021/03/09 05:47:19;;;;;;;18.10;10.48;;;;;;;;;;5138065;28;20023;-88
2021/03/09 05:49:48;;;;;;;21.50;10.45;;;;;;;;;;5138330;28;20322;-86
2021/03/09 05:52:18;;;;;;;24.30;9.63;;;;;;;;;;5138063;28;20064;-85
2021/03/09 05:54:44;;;;;;;24.23;10.88;;;;;;;;;;5137095;28;20019;-85
2021/03/09 05:57:10;;;;;;;19.38;10.23;;;;;;;;;;5137080;28;20032;-85
2021/03/09 05:59:37;;;;;;;24.40;11.52;;;;;;;;;;5136677;28;20016;-85
2021/03/09 06:02:06;;;;;;;19.88;11.70;;;;;;;;;;5136684;28;20043;-85
2021/03/09 06:04:33;;;;;;;22.35;12.25;;;;;;;;;;5138392;27;20068;-85
2021/03/09 06:07:00;;;;;;;23.20;11.43;;;;;;;;;;5141988;27;20042;-85
2021/03/09 06:09:42;;;;;;;40.88;16.95;;;;;;;;;;5141445;27;20026;-85
2021/03/09 06:12:12;;;;;;;76.40;29.52;;;;;;;;;;5141547;27;20030;-85
2021/03/09 06:14:39;;;;;;;82.05;32.65;;;;;;;;;;5140624;27;20027;-85
2021/03/09 06:17:05;;;;;;;70.97;25.58;;;;;;;;;;5141827;27;20329;-88
2021/03/09 06:19:50;;;;;;;80.13;25.23;;;;;;;;;;5121289;27;20035;-85
2021/03/09 06:22:16;;;;;;;51.88;17.77;;;;;;;;;;5120852;28;20024;-84
2021/03/09 06:24:43;;;;;;;27.88;13.10;;;;;;;;;;5106996;28;20352;-89
2021/03/09 06:27:23;;;;;;;22.45;11.65;;;;;;;;;;5100579;28;20059;-87
2021/03/09 06:29:49;;;;;;;28.77;12.82;;;;;;;;;;5120718;28;20016;-86
2021/03/09 06:32:15;;;;;;;24.25;11.85;;;;;;;;;;5120466;28;20134;-85
2021/03/09 06:34:41;;;;;;;31.02;13.10;;;;;;;;;;5120471;28;20019;-86
2021/03/09 06:37:07;;;;;;;28.30;13.30;;;;;;;;;;5119093;28;20132;-85
2021/03/09 06:39:48;;;;;;;26.80;12.30;;;;;;;;;;5114370;28;20430;-85
2021/03/09 06:42:16;;;;;;;22.98;11.73;;;;;;;;;;5100251;28;20039;-87
2021/03/09 06:44:42;;;;;;;26.15;12.05;;;;;;;;;;5108693;28;20020;-76
2021/03/09 06:47:08;;;;;;;24.45;13.20;;;;;;;;;;5119757;28;20057;-89
2021/03/09 06:50:04;;;;;;;26.15;13.98;;;;;;;;;;5103439;28;20028;-89
2021/03/09 06:52:30;;;;;;;28.58;12.70;;;;;;;;;;5036460;28;20060;-89
2021/03/09 06:54:56;;;;;;;23.05;12.65;;;;;;;;;;5038279;28;20034;-90
2021/03/09 06:57:23;;;;;;;23.40;11.90;;;;;;;;;;5021462;28;20037;-89
2021/03/09 06:59:50;;;;;;;24.38;12.68;;;;;;;;;;5038100;28;20022;-90
2021/03/09 07:02:20;;;;;;;23.92;11.02;;;;;;;;;;5037760;28;20045;-91
2021/03/09 07:04:46;;;;;;;21.25;10.82;;;;;;;;;;5037591;28;20033;-89
2021/03/09 07:07:13;;;;;;;18.23;9.63;;;;;;;;;;5037939;28;20438;-91
2021/03/09 07:09:55;;;;;;;21.58;11.18;;;;;;;;;;5037994;28;20048;-91
2021/03/09 07:12:21;;;;;;;18.38;11.70;;;;;;;;;;5037938;28;20332;-91
2021/03/09 07:14:47;;;;;;;16.63;9.73;;;;;;;;;;5037480;28;20049;-90
2021/03/09 07:17:14;;;;;;;18.40;10.70;;;;;;;;;;5037546;28;20029;-88
2021/03/09 07:19:44;;;;;;;16.73;9.68;;;;;;;;;;5037595;28;20018;-90
2021/03/09 07:22:12;;;;;;;16.23;8.02;;;;;;;;;;5037560;28;20030;-90
2021/03/09 07:24:56;;;;;;;16.85;8.98;;;;;;;;;;5037650;28;20029;-89
2021/03/09 07:27:27;;;;;;;12.15;7.05;;;;;;;;;;5037360;28;20048;-90
2021/03/09 07:29:56;;;;;;;15.82;6.82;;;;;;;;;;5113789;28;20135;-89
2021/03/09 07:32:22;;;;;;;10.40;6.47;;;;;;;;;;5119460;28;20027;-89
2021/03/09 07:35:02;;;;;;;12.32;5.95;;;;;;;;;;5118773;28;20148;-89
2021/03/09 07:37:29;;;;;;;15.30;6.63;;;;;;;;;;5118519;28;20023;-89
2021/03/09 07:39:55;;;;;;;10.43;5.40;;;;;;;;;;5119426;28;20016;-89
2021/03/09 07:42:21;;;;;;;10.13;5.57;;;;;;;;;;5119472;28;20314;-90
2021/03/09 07:44:48;;;;;;;15.60;5.25;;;;;;;;;;5119454;28;20098;-89
2021/03/09 07:47:15;;;;;;;12.75;5.90;;;;;;;;;;5119319;28;20020;-91
2021/03/09 07:49:59;;;;;;;12.60;6.18;;;;;;;;;;5119402;28;20028;-91
2021/03/09 07:52:27;;;;;;;14.07;6.47;;;;;;;;;;5118227;28;20016;-90
2021/03/09 07:55:03;;;;;;;9.75;5.65;;;;;;;;;;5118258;28;20031;-91
2021/03/09 07:57:33;;;;;;;12.82;5.72;;;;;;;;;;5119377;28;20030;-91
2021/03/09 08:00:00;;;;;;;10.48;5.20;;;;;;;;;;5117657;28;20062;-91
2021/03/09 08:02:42;;;;;;;14.25;5.90;;;;;;;;;;5117966;28;20035;-90
2021/03/09 08:05:09;;;;;;;12.80;5.47;;;;;;;;;;5118829;28;20106;-91
2021/03/09 08:07:54;;;;;;;10.55;5.70;;;;;;;;;;5118643;28;20020;-90
2021/03/09 08:10:49;;;;;;;17.25;7.50;;;;;;;;;;5118920;28;20047;-91
2021/03/09 08:13:19;;;;;;;13.68;6.45;;;;;;;;;;5036664;28;20034;-91
2021/03/09 08:15:45;;;;;;;15.80;7.25;;;;;;;;;;5036663;28;20067;-91
2021/03/09 08:18:19;;;;;;;14.32;7.18;;;;;;;;;;5036539;28;20037;-90
2021/03/09 08:20:53;;;;;;;17.25;7.57;;;;;;;;;;5036698;28;20029;-90
2021/03/09 08:23:34;;;;;;;9.95;5.88;;;;;;;;;;5036540;28;20053;-91
2021/03/09 08:26:07;;;;;;;18.45;10.85;;;;;;;;;;5036181;28;20025;-90
2021/03/09 08:28:35;;;;;;;17.35;6.93;;;;;;;;;;5035836;28;20082;-91
2021/03/09 08:31:09;;;;;;;10.80;6.28;;;;;;;;;;5036272;28;20033;-91
2021/03/09 08:33:41;;;;;;;16.15;8.27;;;;;;;;;;5036323;28;20017;-90
2021/03/09 08:36:20;;;;;;;11.35;5.43;;;;;;;;;;5019773;28;20476;-90
2021/03/09 08:41:28;;;;;;;13.70;5.55;;;;;;;;;;5036360;28;20041;-91
2021/03/09 08:44:19;;;;;;;10.57;5.28;;;;;;;;;;5036213;28;20076;-90
2021/03/09 08:47:05;;;;;;;13.80;5.47;;;;;;;;;;5029763;28;20443;-91
2021/03/09 08:49:34;;;;;;;17.48;8.80;;;;;;;;;;5073447;28;20054;-90
2021/03/09 08:52:04;;;;;;;16.75;7.45;;;;;;;;;;5118226;28;20115;-90
2021/03/09 08:54:36;;;;;;;13.63;6.05;;;;;;;;;;5118098;28;20015;-89
2021/03/09 08:57:07;;;;;;;15.05;5.45;;;;;;;;;;5117407;28;20122;-90
2021/03/09 08:59:34;;;;;;;11.90;6.25;;;;;;;;;;5118036;28;20032;-91
2021/03/09 09:02:11;;;;;;;16.38;7.18;;;;;;;;;;5116558;28;20039;-89
2021/03/09 09:04:37;;;;;;;13.32;5.68;;;;;;;;;;5118298;28;20102;-90
2021/03/09 09:07:22;;;;;;;8.00;4.65;;;;;;;;;;5118045;28;20107;-90
2021/03/09 09:09:48;;;;;;;11.75;6.07;;;;;;;;;;5117998;28;20068;-91
2021/03/09 09:12:44;;;;;;;12.15;5.47;;;;;;;;;;5117034;28;20027;-90
2021/03/09 09:15:29;;;;;;;12.45;4.90;;;;;;;;;;5035617;28;20049;-90
2021/03/09 09:17:58;;;;;;;8.15;4.60;;;;;;;;;;5018971;28;20427;-90
2021/03/09 09:20:24;;;;;;;8.95;4.88;;;;;;;;;;5035858;28;20076;-90
2021/03/09 09:22:51;;;;;;;11.32;5.95;;;;;;;;;;5019202;28;20116;-89
2021/03/09 09:25:18;;;;;;;9.40;5.65;;;;;;;;;;5018634;28;20037;-90
2021/03/09 09:27:48;;;;;;;9.00;4.85;;;;;;;;;;5035729;28;20025;-88
2021/03/09 09:30:16;;;;;;;9.63;5.00;;;;;;;;;;5035713;28;20428;-89
2021/03/09 09:32:49;;;;;;;11.05;5.57;;;;;;;;;;5035745;28;20108;-89
2021/03/09 09:35:16;;;;;;;8.93;5.00;;;;;;;;;;5035458;28;20416;-90
2021/03/09 09:38:08;;;;;;;10.82;5.90;;;;;;;;;;5035644;28;20543;-89
2021/03/09 09:40:39;;;;;;;18.55;8.80;;;;;;;;;;5034967;28;20073;-89
2021/03/09 09:43:09;;;;;;;18.73;8.10;;;;;;;;;;5039639;28;20041;-90
2021/03/09 09:45:48;;;;;;;15.32;7.40;;;;;;;;;;5038948;28;20033;-90
2021/03/09 09:48:15;;;;;;;11.20;6.57;;;;;;;;;;5023000;28;20021;-90
2021/03/09 09:50:44;;;;;;;12.52;7.03;;;;;;;;;;5052510;28;20115;-89
2021/03/09 09:53:11;;;;;;;14.60;7.50;;;;;;;;;;5120501;28;20028;-89
2021/03/09 09:55:37;;;;;;;11.60;5.63;;;;;;;;;;5121302;28;20027;-90
2021/03/09 09:58:04;;;;;;;11.32;6.20;;;;;;;;;;5121492;28;20028;-89
2021/03/09 10:00:33;;;;;;;13.95;6.53;;;;;;;;;;5120926;28;20413;-89
2021/03/09 10:03:05;;;;;;;11.90;6.63;;;;;;;;;;5121365;28;20108;-88
2021/03/09 10:05:31;;;;;;;;;;;;;;;;;;5121655;28;20024;-89
2021/03/09 10:07:57;;;;;;;12.40;6.68;;;;;;;;;;5120388;28;19910;-88
2021/03/09 10:10:23;;;;;;;14.15;6.95;;;;;;;;;;5121305;28;20020;-88
2021/03/09 10:12:50;;;;;;;14.98;6.70;;;;;;;;;;5120068;28;20496;-88
2021/03/09 10:15:18;;;;;;;14.02;6.38;;;;;;;;;;5119831;28;20040;-88
2021/03/09 10:17:45;;;;;;;13.40;7.00;;;;;;;;;;5121290;28;20032;-88
2021/03/09 10:20:18;;;;;;;11.85;7.07;;;;;;;;;;5118518;27;20073;-88
2021/03/09 10:22:45;;;;;;;10.43;6.57;;;;;;;;;;5120304;28;20034;-87
2021/03/09 10:25:12;;;;;;;10.18;6.80;;;;;;;;;;5120115;28;20091;-88
2021/03/09 10:27:38;;;;;;;11.35;6.72;;;;;;;;;;5120466;28;20028;-88
2021/03/09 10:30:05;;;;;;;12.52;7.35;;;;;;;;;;5120692;28;20020;-87
2021/03/09 10:32:31;;;;;;;12.95;7.88;;;;;;;;;;5120844;28;20031;-87
2021/03/09 10:35:06;;;;;;;15.20;9.52;;;;;;;;;;5120902;28;20039;-89
2021/03/09 10:37:35;;;;;;;14.23;7.50;;;;;;;;;;5119288;28;20059;-88
2021/03/09 10:40:04;;;;;;;21.13;10.13;;;;;;;;;;5120674;28;20020;-88
2021/03/09 10:42:31;;;;;;;14.32;10.63;;;;;;;;;;5120818;28;20030;-88
2021/03/09 10:44:59;;;;;;;22.77;14.43;;;;;;;;;;5120529;28;20031;-88
2021/03/09 10:47:26;;;;;;;17.00;11.05;;;;;;;;;;5119574;28;20019;-88
2021/03/09 10:49:52;;;;;;;19.25;10.60;;;;;;;;;;5119430;28;20132;-88
2021/03/09 10:52:18;;;;;;;12.85;8.38;;;;;;;;;;5119733;28;20418;-88
2021/03/09 10:54:44;;;;;;;13.73;8.77;;;;;;;;;;5120416;28;20058;-89
2021/03/09 10:57:11;;;;;;;17.10;9.85;;;;;;;;;;5119426;28;20031;-88
2021/03/09 10:59:38;;;;;;;13.57;8.07;;;;;;;;;;5119276;28;20024;-88
2021/03/09 11:02:08;;;;;;;13.38;8.55;;;;;;;;;;5120158;28;20067;-88
2021/03/09 11:04:34;;;;;;;14.90;8.95;;;;;;;;;;5118782;28;20031;-88
2021/03/09 11:07:01;;;;;;;23.15;12.48;;;;;;;;;;5120101;28;20024;-87
2021/03/09 11:09:27;;;;;;;20.23;10.10;;;;;;;;;;5119997;28;20102;-87
2021/03/09 11:11:53;;;;;;;21.83;11.63;;;;;;;;;;5119879;28;20020;-87
2021/03/09 11:14:19;;;;;;;27.90;13.45;;;;;;;;;;5119496;28;20020;-87
2021/03/09 11:16:45;;;;;;;16.63;8.98;;;;;;;;;;5120246;28;20456;-87
2021/03/09 11:19:11;;;;;;;19.55;9.68;;;;;;;;;;5120075;28;20038;-87
2021/03/09 11:21:37;;;;;;;14.77;8.75;;;;;;;;;;5118518;28;20040;-88
2021/03/09 11:24:03;;;;;;;14.25;8.57;;;;;;;;;;5119646;28;20024;-87
2021/03/09 11:26:29;;;;;;;14.35;9.25;;;;;;;;;;5118230;28;20122;-88
2021/03/09 11:28:56;;;;;;;15.63;8.30;;;;;;;;;;5119545;28;20019;-87
2021/03/09 11:31:22;;;;;;;13.25;8.38;;;;;;;;;;5119598;28;20446;-88
2021/03/09 11:33:49;;;;;;;15.15;8.85;;;;;;;;;;5119877;28;20024;-88
2021/03/09 11:36:15;;;;;;;14.50;8.45;;;;;;;;;;5119554;28;20061;-88
2021/03/09 11:38:45;;;;;;;11.50;7.95;;;;;;;;;;5119645;28;20085;-88
2021/03/09 11:41:11;;;;;;;13.02;7.75;;;;;;;;;;5119373;28;20040;-87
2021/03/09 11:43:38;;;;;;;11.68;7.40;;;;;;;;;;5117844;28;20070;-87
2021/03/09 11:46:04;;;;;;;13.45;8.10;;;;;;;;;;5119257;28;20031;-88
2021/03/09 11:48:30;;;;;;;21.67;9.52;;;;;;;;;;5119281;28;20019;-87
2021/03/09 11:50:56;;;;;;;12.77;7.60;;;;;;;;;;5118858;28;20028;-87
2021/03/09 11:53:22;;;;;;;19.35;8.52;;;;;;;;;;5118900;28;20053;-87
2021/03/09 11:55:49;;;;;;;13.23;7.53;;;;;;;;;;5118991;28;20019;-87
2021/03/09 11:58:15;;;;;;;11.77;7.63;;;;;;;;;;5118993;28;20031;-86
2021/03/09 12:00:41;;;;;;;17.63;10.18;;;;;;;;;;5113878;27;20112;-86
2021/03/09 12:03:07;;;;;;;14.45;7.72;;;;;;;;;;5116348;28;20437;-86
2021/03/09 12:05:33;;;;;;;18.60;11.05;;;;;;;;;;5118737;28;20413;-86
2021/03/09 12:08:01;;;;;;;19.40;11.25;;;;;;;;;;5118649;28;20047;-86
2021/03/09 12:10:27;;;;;;;15.77;8.38;;;;;;;;;;5118850;28;20047;-86
2021/03/09 12:12:53;;;;;;;13.40;7.68;;;;;;;;;;5118568;28;20398;-86
2021/03/09 12:15:19;;;;;;;17.65;9.57;;;;;;;;;;5118337;28;20020;-87
2021/03/09 12:17:45;;;;;;;12.68;8.15;;;;;;;;;;5118486;28;20059;-86
2021/03/09 12:20:12;;;;;;;13.18;7.85;;;;;;;;;;5117319;28;20406;-85
2021/03/09 12:22:38;;;;;;;15.25;8.02;;;;;;;;;;5118701;28;20080;-86
2021/03/09 12:25:05;;;;;;;12.00;7.45;;;;;;;;;;5118369;28;20030;-85
2021/03/09 12:27:31;;;;;;;12.95;7.32;;;;;;;;;;5117360;28;20027;-86
2021/03/09 12:29:57;;;;;;;14.25;7.43;;;;;;;;;;5118495;28;20024;-85
2021/03/09 12:32:23;;;;;;;18.20;8.07;;;;;;;;;;5118356;28;20030;-86
2021/03/09 12:34:50;;;;;;;15.55;9.00;;;;;;;;;;5118260;28;20061;-85
2021/03/09 12:37:16;;;;;;;18.70;10.45;;;;;;;;;;5116941;28;20039;-85
2021/03/09 12:39:42;;;;;;;18.05;10.30;;;;;;;;;;5117980;28;20020;-82
2021/03/09 12:42:08;;;;;;;16.92;9.75;;;;;;;;;;5118085;28;20356;-82
2021/03/09 12:44:35;;;;;;;12.88;7.18;;;;;;;;;;5117714;28;20074;-82
2021/03/09 12:47:01;;;;;;;16.88;7.53;;;;;;;;;;5117619;28;20089;-82
2021/03/09 12:49:27;;;;;;;14.40;8.45;;;;;;;;;;5117654;28;20418;-82
2021/03/09 12:51:53;;;;;;;18.50;8.48;;;;;;;;;;5117585;28;20318;-82
2021/03/09 12:54:19;;;;;;;14.45;8.60;;;;;;;;;;5117410;28;20405;-82
2021/03/09 12:56:45;;;;;;;16.38;9.32;;;;;;;;;;5116090;28;20032;-82
2021/03/09 12:59:11;;;;;;;17.38;9.52;;;;;;;;;;5117561;28;20032;-82
2021/03/09 13:01:37;;;;;;;13.77;8.65;;;;;;;;;;5117353;28;20050;-82
2021/03/09 13:04:04;;;;;;;13.18;8.65;;;;;;;;;;5116158;28;20049;-82
2021/03/09 13:06:30;;;;;;;11.90;7.00;;;;;;;;;;5116941;28;20024;-82
2021/03/09 13:08:56;;;;;;;14.52;8.65;;;;;;;;;;5117541;28;20410;-82
2021/03/09 13:11:22;;;;;;;16.23;10.02;;;;;;;;;;5117628;28;20020;-85
2021/03/09 13:13:49;;;;;;;18.05;9.55;;;;;;;;;;5117174;28;20048;-84
2021/03/09 13:16:15;;;;;;;17.15;9.30;;;;;;;;;;5121933;28;20032;-84
2021/03/09 13:18:42;;;;;;;19.88;10.85;;;;;;;;;;5122229;28;20031;-84
2021/03/09 13:21:08;;;;;;;18.38;9.88;;;;;;;;;;5122057;28;20030;-84
2021/03/09 13:23:34;;;;;;;17.77;9.88;;;;;;;;;;5121833;28;20020;-84
2021/03/09 13:26:00;;;;;;;15.95;9.25;;;;;;;;;;5122004;28;20291;-84
2021/03/09 13:28:26;;;;;;;11.80;7.65;;;;;;;;;;5121619;28;20024;-84
2021/03/09 13:30:52;;;;;;;11.38;7.38;;;;;;;;;;5120228;28;20028;-84
2021/03/09 13:33:19;;;;;;;13.40;7.53;;;;;;;;;;5121768;28;20020;-84
2021/03/09 13:35:45;;;;;;;11.85;7.88;;;;;;;;;;5120284;28;20038;-84
2021/03/09 13:38:11;;;;;;;12.88;7.53;;;;;;;;;;5121730;28;20038;-85
2021/03/09 13:40:37;;;;;;;17.63;8.18;;;;;;;;;;5121769;28;20111;-84
2021/03/09 13:43:04;;;;;;;16.48;9.93;;;;;;;;;;5121541;28;20032;-84
2021/03/09 13:45:30;;;;;;;19.13;10.93;;;;;;;;;;5120038;28;20329;-85
2021/03/09 13:47:57;;;;;;;22.23;11.10;;;;;;;;;;5121587;28;20318;-85
2021/03/09 13:50:23;;;;;;;15.77;10.25;;;;;;;;;;5119950;28;20130;-85
2021/03/09 13:52:49;;;;;;;17.17;9.45;;;;;;;;;;5121293;28;20026;-85
2021/03/09 13:55:15;;;;;;;15.48;8.98;;;;;;;;;;5121324;28;20032;-84
2021/03/09 13:57:42;;;;;;;14.57;9.13;;;;;;;;;;5121213;28;20037;-85
2021/03/09 14:00:09;;;;;;;14.77;8.38;;;;;;;;;;5119487;28;20031;-85
2021/03/09 14:02:36;;;;;;;14.25;8.63;;;;;;;;;;5120910;28;20051;-85
2021/03/09 14:05:02;;;;;;;12.55;7.97;;;;;;;;;;5121224;28;20019;-85
2021/03/09 14:07:28;;;;;;;11.68;7.82;;;;;;;;;;5121327;28;20309;-85
2021/03/09 14:09:54;;;;;;;14.13;7.70;;;;;;;;;;5119803;28;20374;-85
2021/03/09 14:12:20;;;;;;;15.38;8.55;;;;;;;;;;5120923;28;20106;-86
2021/03/09 14:14:46;;;;;;;13.35;7.55;;;;;;;;;;5120967;28;20024;-85
2021/03/09 14:17:13;;;;;;;12.68;7.85;;;;;;;;;;5121145;28;20050;-85
2021/03/09 14:19:40;;;;;;;14.73;7.43;;;;;;;;;;5119923;28;20032;-85
2021/03/09 14:22:06;;;;;;;28.20;8.35;;;;;;;;;;5120801;28;20020;-85
2021/03/09 14:24:32;;;;;;;13.10;7.38;;;;;;;;;;5120769;28;20030;-85
2021/03/09 14:26:58;;;;;;;21.30;8.63;;;;;;;;;;5119839;28;20064;-85
2021/03/09 14:29:24;;;;;;;11.98;7.03;;;;;;;;;;5120656;28;20016;-85
2021/03/09 14:31:50;;;;;;;17.75;10.10;;;;;;;;;;5120532;28;20020;-85